sensor_id;sensor_type;location;lat;lon;timestamp;temperature;humidity
21335;DHT22;69435;52.670;13.544;2023-11-19T00:02:13;6.30;64.10
21335;DHT22;69435;52.670;13.544;2023-11-19T00:05:01;6.20;64.00
21335;DHT22;69435;52.670;13.544;2023-11-19T00:07:47;6.30;64.50
21335;DHT22;69435;52.670;13.544;2023-11-19T00:10:33;6.30;64.50
21335;DHT22;69435;52.670;13.544;2023-11-19T00:13:19;6.30;64.50
21335;DHT22;69435;52.670;13.544;2023-11-19T00:16:06;6.30;64.60
21335;DHT22;69435;52.670;13.544;2023-11-19T00:18:55;6.30;64.50
21335;DHT22;69435;52.670;13.544;2023-11-19T00:21:41;6.30;64.70
21335;DHT22;69435;52.670;13.544;2023-11-19T00:24:27;6.30;64.80
21335;DHT22;69435;52.670;13.544;2023-11-19T00:27:14;6.20;64.80
21335;DHT22;69435;52.670;13.544;2023-11-19T00:30:00;6.30;65.20
21335;DHT22;69435;52.670;13.544;2023-11-19T00:32:46;6.30;65.20
21335;DHT22;69435;52.670;13.544;2023-11-19T00:35:32;6.30;65.20
21335;DHT22;69435;52.670;13.544;2023-11-19T00:38:18;6.20;65.10
21335;DHT22;69435;52.670;13.544;2023-11-19T00:41:05;6.30;65.10
21335;DHT22;69435;52.670;13.544;2023-11-19T00:43:51;6.30;65.20
21335;DHT22;69435;52.670;13.544;2023-11-19T00:46:37;6.30;65.30
21335;DHT22;69435;52.670;13.544;2023-11-19T00:49:23;6.20;65.30
21335;DHT22;69435;52.670;13.544;2023-11-19T00:52:09;6.20;65.10
21335;DHT22;69435;52.670;13.544;2023-11-19T00:54:55;6.30;65.20
21335;DHT22;69435;52.670;13.544;2023-11-19T00:57:42;6.30;65.30
21335;DHT22;69435;52.670;13.544;2023-11-19T01:00:28;6.30;65.50
21335;DHT22;69435;52.670;13.544;2023-11-19T01:03:15;6.30;65.50
21335;DHT22;69435;52.670;13.544;2023-11-19T01:06:01;6.30;65.40
21335;DHT22;69435;52.670;13.544;2023-11-19T01:08:48;6.30;65.30
21335;DHT22;69435;52.670;13.544;2023-11-19T01:11:34;6.30;65.30
21335;DHT22;69435;52.670;13.544;2023-11-19T01:14:20;6.30;65.30
21335;DHT22;69435;52.670;13.544;2023-11-19T01:17:08;6.30;65.20
21335;DHT22;69435;52.670;13.544;2023-11-19T01:19:54;6.30;65.00
21335;DHT22;69435;52.670;13.544;2023-11-19T01:22:40;6.30;64.80
21335;DHT22;69435;52.670;13.544;2023-11-19T01:25:26;6.30;64.80
21335;DHT22;69435;52.670;13.544;2023-11-19T01:28:12;6.30;64.70
21335;DHT22;69435;52.670;13.544;2023-11-19T01:30:58;6.20;64.80
21335;DHT22;69435;52.670;13.544;2023-11-19T01:33:45;6.20;64.90
21335;DHT22;69435;52.670;13.544;2023-11-19T01:36:32;6.20;64.80
21335;DHT22;69435;52.670;13.544;2023-11-19T01:39:18;6.30;65.00
21335;DHT22;69435;52.670;13.544;2023-11-19T01:42:05;6.30;65.10
21335;DHT22;69435;52.670;13.544;2023-11-19T01:45:00;6.30;65.00
21335;DHT22;69435;52.670;13.544;2023-11-19T01:47:52;6.20;64.70
21335;DHT22;69435;52.670;13.544;2023-11-19T01:50:38;6.30;64.90
21335;DHT22;69435;52.670;13.544;2023-11-19T01:53:25;6.30;65.00
21335;DHT22;69435;52.670;13.544;2023-11-19T01:56:14;6.30;64.70
21335;DHT22;69435;52.670;13.544;2023-11-19T01:59:02;6.30;64.70
21335;DHT22;69435;52.670;13.544;2023-11-19T02:01:49;6.20;64.50
21335;DHT22;69435;52.670;13.544;2023-11-19T02:04:37;6.30;64.50
21335;DHT22;69435;52.670;13.544;2023-11-19T02:07:24;6.30;64.50
21335;DHT22;69435;52.670;13.544;2023-11-19T02:10:11;6.30;64.60
21335;DHT22;69435;52.670;13.544;2023-11-19T02:12:59;6.30;64.50
21335;DHT22;69435;52.670;13.544;2023-11-19T02:15:46;6.30;64.20
21335;DHT22;69435;52.670;13.544;2023-11-19T02:18:32;6.40;64.30
21335;DHT22;69435;52.670;13.544;2023-11-19T02:21:18;6.40;64.10
21335;DHT22;69435;52.670;13.544;2023-11-19T02:24:06;6.40;64.80
21335;DHT22;69435;52.670;13.544;2023-11-19T02:27:02;6.30;64.20
21335;DHT22;69435;52.670;13.544;2023-11-19T02:29:56;6.40;64.40
21335;DHT22;69435;52.670;13.544;2023-11-19T02:32:43;6.40;64.50
21335;DHT22;69435;52.670;13.544;2023-11-19T02:35:29;6.40;64.40
21335;DHT22;69435;52.670;13.544;2023-11-19T02:38:18;6.40;64.70
21335;DHT22;69435;52.670;13.544;2023-11-19T02:41:04;6.30;64.80
21335;DHT22;69435;52.670;13.544;2023-11-19T02:43:52;6.40;64.80
21335;DHT22;69435;52.670;13.544;2023-11-19T02:46:38;6.40;64.90
21335;DHT22;69435;52.670;13.544;2023-11-19T02:49:24;6.40;65.00
21335;DHT22;69435;52.670;13.544;2023-11-19T02:52:10;6.40;64.80
21335;DHT22;69435;52.670;13.544;2023-11-19T02:54:56;6.40;64.80
21335;DHT22;69435;52.670;13.544;2023-11-19T02:57:42;6.40;64.90
21335;DHT22;69435;52.670;13.544;2023-11-19T03:00:34;6.30;64.60
21335;DHT22;69435;52.670;13.544;2023-11-19T03:03:28;6.40;64.50
21335;DHT22;69435;52.670;13.544;2023-11-19T03:06:16;6.40;64.70
21335;DHT22;69435;52.670;13.544;2023-11-19T03:09:02;6.40;64.50
21335;DHT22;69435;52.670;13.544;2023-11-19T03:11:55;6.40;64.40
21335;DHT22;69435;52.670;13.544;2023-11-19T03:14:42;6.40;64.10
21335;DHT22;69435;52.670;13.544;2023-11-19T03:17:28;6.40;64.30
21335;DHT22;69435;52.670;13.544;2023-11-19T03:20:14;6.40;64.30
21335;DHT22;69435;52.670;13.544;2023-11-19T03:23:03;6.50;64.40
21335;DHT22;69435;52.670;13.544;2023-11-19T03:25:49;6.50;64.40
21335;DHT22;69435;52.670;13.544;2023-11-19T03:28:35;6.50;64.50
21335;DHT22;69435;52.670;13.544;2023-11-19T03:31:21;6.50;64.50
21335;DHT22;69435;52.670;13.544;2023-11-19T03:34:07;6.60;64.50
21335;DHT22;69435;52.670;13.544;2023-11-19T03:36:54;6.60;64.40
21335;DHT22;69435;52.670;13.544;2023-11-19T03:39:40;6.60;64.40
21335;DHT22;69435;52.670;13.544;2023-11-19T03:42:26;6.60;64.40
21335;DHT22;69435;52.670;13.544;2023-11-19T03:45:13;6.60;64.50
21335;DHT22;69435;52.670;13.544;2023-11-19T03:48:00;6.60;65.00
21335;DHT22;69435;52.670;13.544;2023-11-19T03:50:46;6.60;65.20
21335;DHT22;69435;52.670;13.544;2023-11-19T03:53:32;6.50;65.70
21335;DHT22;69435;52.670;13.544;2023-11-19T03:56:18;6.50;65.90
21335;DHT22;69435;52.670;13.544;2023-11-19T03:59:06;6.50;66.20
21335;DHT22;69435;52.670;13.544;2023-11-19T04:01:53;6.40;66.50
21335;DHT22;69435;52.670;13.544;2023-11-19T04:04:42;6.50;66.70
21335;DHT22;69435;52.670;13.544;2023-11-19T04:07:28;6.50;66.90
21335;DHT22;69435;52.670;13.544;2023-11-19T04:10:14;6.50;67.20
21335;DHT22;69435;52.670;13.544;2023-11-19T04:13:02;6.50;67.10
21335;DHT22;69435;52.670;13.544;2023-11-19T04:15:50;6.50;67.20
21335;DHT22;69435;52.670;13.544;2023-11-19T04:18:36;6.50;67.20
21335;DHT22;69435;52.670;13.544;2023-11-19T04:21:22;6.50;67.40
21335;DHT22;69435;52.670;13.544;2023-11-19T04:24:09;6.50;67.50
21335;DHT22;69435;52.670;13.544;2023-11-19T04:26:59;6.50;67.70
21335;DHT22;69435;52.670;13.544;2023-11-19T04:29:45;6.40;67.60
21335;DHT22;69435;52.670;13.544;2023-11-19T04:32:32;6.50;67.80
21335;DHT22;69435;52.670;13.544;2023-11-19T04:35:19;6.50;68.00
21335;DHT22;69435;52.670;13.544;2023-11-19T04:38:05;6.50;68.10
21335;DHT22;69435;52.670;13.544;2023-11-19T04:40:51;6.50;68.10
21335;DHT22;69435;52.670;13.544;2023-11-19T04:43:38;6.50;68.10
21335;DHT22;69435;52.670;13.544;2023-11-19T04:46:24;6.50;68.10
21335;DHT22;69435;52.670;13.544;2023-11-19T04:49:10;6.50;68.10
21335;DHT22;69435;52.670;13.544;2023-11-19T04:51:56;6.50;68.20
21335;DHT22;69435;52.670;13.544;2023-11-19T04:54:44;6.50;68.30
21335;DHT22;69435;52.670;13.544;2023-11-19T04:57:30;6.60;68.20
21335;DHT22;69435;52.670;13.544;2023-11-19T05:00:18;6.60;68.10
21335;DHT22;69435;52.670;13.544;2023-11-19T05:03:04;6.60;68.40
21335;DHT22;69435;52.670;13.544;2023-11-19T05:05:50;6.50;68.50
21335;DHT22;69435;52.670;13.544;2023-11-19T05:08:36;6.50;68.70
21335;DHT22;69435;52.670;13.544;2023-11-19T05:11:22;6.40;69.00
21335;DHT22;69435;52.670;13.544;2023-11-19T05:14:08;6.40;69.20
21335;DHT22;69435;52.670;13.544;2023-11-19T05:16:54;6.40;69.40
21335;DHT22;69435;52.670;13.544;2023-11-19T05:19:41;6.40;69.60
21335;DHT22;69435;52.670;13.544;2023-11-19T05:22:26;6.40;69.70
21335;DHT22;69435;52.670;13.544;2023-11-19T05:25:13;6.40;69.80
21335;DHT22;69435;52.670;13.544;2023-11-19T05:27:59;6.40;69.90
21335;DHT22;69435;52.670;13.544;2023-11-19T05:30:45;6.40;70.00
21335;DHT22;69435;52.670;13.544;2023-11-19T05:33:31;6.40;70.00
21335;DHT22;69435;52.670;13.544;2023-11-19T05:36:17;6.40;70.10
21335;DHT22;69435;52.670;13.544;2023-11-19T05:39:03;6.40;70.10
21335;DHT22;69435;52.670;13.544;2023-11-19T05:41:50;6.50;70.20
21335;DHT22;69435;52.670;13.544;2023-11-19T05:44:36;6.50;70.20
21335;DHT22;69435;52.670;13.544;2023-11-19T05:47:23;6.50;70.30
21335;DHT22;69435;52.670;13.544;2023-11-19T05:50:09;6.50;70.40
21335;DHT22;69435;52.670;13.544;2023-11-19T05:52:56;6.50;70.50
21335;DHT22;69435;52.670;13.544;2023-11-19T05:55:42;6.50;70.60
21335;DHT22;69435;52.670;13.544;2023-11-19T05:58:41;6.50;70.70
21335;DHT22;69435;52.670;13.544;2023-11-19T06:01:27;6.50;70.70
21335;DHT22;69435;52.670;13.544;2023-11-19T06:04:14;6.50;70.70
21335;DHT22;69435;52.670;13.544;2023-11-19T06:07:01;6.50;70.80
21335;DHT22;69435;52.670;13.544;2023-11-19T06:09:47;6.50;70.80
21335;DHT22;69435;52.670;13.544;2023-11-19T06:12:34;6.50;70.80
21335;DHT22;69435;52.670;13.544;2023-11-19T06:15:23;6.60;70.70
21335;DHT22;69435;52.670;13.544;2023-11-19T06:18:09;6.60;70.70
21335;DHT22;69435;52.670;13.544;2023-11-19T06:20:57;6.60;70.70
21335;DHT22;69435;52.670;13.544;2023-11-19T06:23:43;6.70;70.80
21335;DHT22;69435;52.670;13.544;2023-11-19T06:26:29;6.70;70.80
21335;DHT22;69435;52.670;13.544;2023-11-19T06:29:18;6.70;70.80
21335;DHT22;69435;52.670;13.544;2023-11-19T06:32:05;6.70;70.80
21335;DHT22;69435;52.670;13.544;2023-11-19T06:34:51;6.70;70.70
21335;DHT22;69435;52.670;13.544;2023-11-19T06:37:41;6.80;70.80
21335;DHT22;69435;52.670;13.544;2023-11-19T06:40:27;6.80;71.60
21335;DHT22;69435;52.670;13.544;2023-11-19T06:43:13;6.80;70.80
21335;DHT22;69435;52.670;13.544;2023-11-19T06:45:59;6.80;70.80
21335;DHT22;69435;52.670;13.544;2023-11-19T06:48:46;6.80;70.90
21335;DHT22;69435;52.670;13.544;2023-11-19T06:51:32;6.80;70.90
21335;DHT22;69435;52.670;13.544;2023-11-19T06:54:18;6.80;71.00
21335;DHT22;69435;52.670;13.544;2023-11-19T06:57:04;6.90;71.00
21335;DHT22;69435;52.670;13.544;2023-11-19T06:59:50;7.00;70.90
21335;DHT22;69435;52.670;13.544;2023-11-19T07:02:36;7.00;70.80
21335;DHT22;69435;52.670;13.544;2023-11-19T07:05:23;7.00;70.70
21335;DHT22;69435;52.670;13.544;2023-11-19T07:08:09;7.00;70.60
21335;DHT22;69435;52.670;13.544;2023-11-19T07:10:55;7.00;70.60
21335;DHT22;69435;52.670;13.544;2023-11-19T07:13:41;7.10;70.80
21335;DHT22;69435;52.670;13.544;2023-11-19T07:16:28;7.10;70.70
21335;DHT22;69435;52.670;13.544;2023-11-19T07:19:14;7.10;70.80
21335;DHT22;69435;52.670;13.544;2023-11-19T07:22:00;7.10;70.70
21335;DHT22;69435;52.670;13.544;2023-11-19T07:24:46;7.10;70.70
21335;DHT22;69435;52.670;13.544;2023-11-19T07:27:33;7.20;70.80
21335;DHT22;69435;52.670;13.544;2023-11-19T07:30:19;7.20;70.80
21335;DHT22;69435;52.670;13.544;2023-11-19T07:33:05;7.20;70.80
21335;DHT22;69435;52.670;13.544;2023-11-19T07:35:51;7.20;70.80
21335;DHT22;69435;52.670;13.544;2023-11-19T07:38:39;7.20;70.80
21335;DHT22;69435;52.670;13.544;2023-11-19T07:41:25;7.30;70.80
21335;DHT22;69435;52.670;13.544;2023-11-19T07:44:11;7.20;70.80
21335;DHT22;69435;52.670;13.544;2023-11-19T07:46:57;7.30;71.20
21335;DHT22;69435;52.670;13.544;2023-11-19T07:49:44;7.30;70.90
21335;DHT22;69435;52.670;13.544;2023-11-19T07:52:30;7.40;70.80
21335;DHT22;69435;52.670;13.544;2023-11-19T07:55:16;7.40;70.90
21335;DHT22;69435;52.670;13.544;2023-11-19T07:58:02;7.40;70.90
21335;DHT22;69435;52.670;13.544;2023-11-19T08:00:48;7.40;70.90
21335;DHT22;69435;52.670;13.544;2023-11-19T08:03:34;7.50;71.00
21335;DHT22;69435;52.670;13.544;2023-11-19T08:06:20;7.50;70.90
21335;DHT22;69435;52.670;13.544;2023-11-19T08:09:07;7.50;71.70
21335;DHT22;69435;52.670;13.544;2023-11-19T08:11:59;7.50;71.00
21335;DHT22;69435;52.670;13.544;2023-11-19T08:14:45;7.60;71.00
21335;DHT22;69435;52.670;13.544;2023-11-19T08:17:31;7.60;71.00
21335;DHT22;69435;52.670;13.544;2023-11-19T08:20:17;7.60;71.10
21335;DHT22;69435;52.670;13.544;2023-11-19T08:23:03;7.60;71.10
21335;DHT22;69435;52.670;13.544;2023-11-19T08:25:49;7.60;71.30
21335;DHT22;69435;52.670;13.544;2023-11-19T08:28:35;7.60;71.40
21335;DHT22;69435;52.670;13.544;2023-11-19T08:31:21;7.70;71.50
21335;DHT22;69435;52.670;13.544;2023-11-19T08:34:07;7.80;71.40
21335;DHT22;69435;52.670;13.544;2023-11-19T08:36:54;7.80;71.40
21335;DHT22;69435;52.670;13.544;2023-11-19T08:39:40;7.80;71.40
21335;DHT22;69435;52.670;13.544;2023-11-19T08:42:27;7.90;71.60
21335;DHT22;69435;52.670;13.544;2023-11-19T08:45:14;7.90;71.60
21335;DHT22;69435;52.670;13.544;2023-11-19T08:48:00;8.00;71.60
21335;DHT22;69435;52.670;13.544;2023-11-19T08:50:46;8.00;71.60
21335;DHT22;69435;52.670;13.544;2023-11-19T08:53:32;8.00;71.60
21335;DHT22;69435;52.670;13.544;2023-11-19T08:56:18;8.10;71.70
21335;DHT22;69435;52.670;13.544;2023-11-19T08:59:05;8.20;71.70
21335;DHT22;69435;52.670;13.544;2023-11-19T09:01:51;8.20;71.60
21335;DHT22;69435;52.670;13.544;2023-11-19T09:04:37;8.30;71.70
21335;DHT22;69435;52.670;13.544;2023-11-19T09:07:23;8.30;71.70
21335;DHT22;69435;52.670;13.544;2023-11-19T09:10:09;8.40;71.70
21335;DHT22;69435;52.670;13.544;2023-11-19T09:12:57;8.50;71.70
21335;DHT22;69435;52.670;13.544;2023-11-19T09:15:43;8.50;71.70
21335;DHT22;69435;52.670;13.544;2023-11-19T09:18:29;8.60;71.60
21335;DHT22;69435;52.670;13.544;2023-11-19T09:21:16;8.60;71.60
21335;DHT22;69435;52.670;13.544;2023-11-19T09:24:02;8.60;71.60
21335;DHT22;69435;52.670;13.544;2023-11-19T09:26:48;8.60;71.60
21335;DHT22;69435;52.670;13.544;2023-11-19T09:29:34;8.70;71.70
21335;DHT22;69435;52.670;13.544;2023-11-19T09:32:21;8.70;71.70
21335;DHT22;69435;52.670;13.544;2023-11-19T09:35:07;8.70;71.80
21335;DHT22;69435;52.670;13.544;2023-11-19T09:37:54;8.70;72.80
21335;DHT22;69435;52.670;13.544;2023-11-19T09:40:40;8.80;72.20
21335;DHT22;69435;52.670;13.544;2023-11-19T09:43:27;8.90;72.40
21335;DHT22;69435;52.670;13.544;2023-11-19T09:46:15;8.90;72.60
21335;DHT22;69435;52.670;13.544;2023-11-19T09:49:02;9.00;72.90
21335;DHT22;69435;52.670;13.544;2023-11-19T09:51:50;9.10;73.30
21335;DHT22;69435;52.670;13.544;2023-11-19T09:54:36;9.20;73.80
21335;DHT22;69435;52.670;13.544;2023-11-19T09:57:22;9.40;74.20
21335;DHT22;69435;52.670;13.544;2023-11-19T10:00:10;9.50;74.30
21335;DHT22;69435;52.670;13.544;2023-11-19T10:02:59;9.60;74.20
21335;DHT22;69435;52.670;13.544;2023-11-19T10:05:46;9.70;74.30
21335;DHT22;69435;52.670;13.544;2023-11-19T10:08:32;9.80;74.20
21335;DHT22;69435;52.670;13.544;2023-11-19T10:11:19;9.90;74.40
21335;DHT22;69435;52.670;13.544;2023-11-19T10:14:05;10.00;74.40
21335;DHT22;69435;52.670;13.544;2023-11-19T10:16:51;10.10;74.70
21335;DHT22;69435;52.670;13.544;2023-11-19T10:19:40;10.20;74.70
21335;DHT22;69435;52.670;13.544;2023-11-19T10:22:30;10.30;74.90
21335;DHT22;69435;52.670;13.544;2023-11-19T10:25:29;10.50;74.90
21335;DHT22;69435;52.670;13.544;2023-11-19T10:28:15;10.60;74.70
21335;DHT22;69435;52.670;13.544;2023-11-19T10:31:05;10.70;74.80
21335;DHT22;69435;52.670;13.544;2023-11-19T10:33:52;10.80;74.40
21335;DHT22;69435;52.670;13.544;2023-11-19T10:36:39;10.90;74.40
21335;DHT22;69435;52.670;13.544;2023-11-19T10:39:52;11.00;74.30
21335;DHT22;69435;52.670;13.544;2023-11-19T10:42:42;11.20;74.50
21335;DHT22;69435;52.670;13.544;2023-11-19T10:45:28;11.30;74.60
21335;DHT22;69435;52.670;13.544;2023-11-19T10:48:14;11.40;74.80
21335;DHT22;69435;52.670;13.544;2023-11-19T10:51:05;11.60;75.10
21335;DHT22;69435;52.670;13.544;2023-11-19T10:53:59;11.80;75.60
21335;DHT22;69435;52.670;13.544;2023-11-19T10:56:55;12.00;75.60
21335;DHT22;69435;52.670;13.544;2023-11-19T10:59:45;12.20;75.20
21335;DHT22;69435;52.670;13.544;2023-11-19T11:02:35;12.40;74.90
21335;DHT22;69435;52.670;13.544;2023-11-19T11:05:30;12.50;75.00
21335;DHT22;69435;52.670;13.544;2023-11-19T11:08:20;12.70;74.40
21335;DHT22;69435;52.670;13.544;2023-11-19T11:11:07;12.80;73.40
21335;DHT22;69435;52.670;13.544;2023-11-19T11:13:58;12.90;72.50
21335;DHT22;69435;52.670;13.544;2023-11-19T11:16:48;12.90;72.10
21335;DHT22;69435;52.670;13.544;2023-11-19T11:19:36;13.00;72.00
21335;DHT22;69435;52.670;13.544;2023-11-19T11:22:24;13.10;72.20
21335;DHT22;69435;52.670;13.544;2023-11-19T11:25:19;13.20;71.90
21335;DHT22;69435;52.670;13.544;2023-11-19T11:34:53;13.30;71.70
21335;DHT22;69435;52.670;13.544;2023-11-19T11:38:07;13.40;71.50
21335;DHT22;69435;52.670;13.544;2023-11-19T11:41:15;13.50;71.10
21335;DHT22;69435;52.670;13.544;2023-11-19T11:44:04;13.50;71.30
21335;DHT22;69435;52.670;13.544;2023-11-19T11:46:54;13.60;71.80
21335;DHT22;69435;52.670;13.544;2023-11-19T11:49:41;13.70;71.70
21335;DHT22;69435;52.670;13.544;2023-11-19T11:52:27;13.70;70.90
21335;DHT22;69435;52.670;13.544;2023-11-19T11:55:13;13.80;70.70
21335;DHT22;69435;52.670;13.544;2023-11-19T11:57:59;13.80;69.70
21335;DHT22;69435;52.670;13.544;2023-11-19T12:00:47;13.70;69.50
21335;DHT22;69435;52.670;13.544;2023-11-19T12:03:34;13.60;69.80
21335;DHT22;69435;52.670;13.544;2023-11-19T12:06:21;13.50;70.10
21335;DHT22;69435;52.670;13.544;2023-11-19T12:09:08;13.50;70.30
21335;DHT22;69435;52.670;13.544;2023-11-19T12:12:11;13.50;70.40
21335;DHT22;69435;52.670;13.544;2023-11-19T12:15:02;13.50;70.20
21335;DHT22;69435;52.670;13.544;2023-11-19T12:17:52;13.50;70.40
21335;DHT22;69435;52.670;13.544;2023-11-19T12:20:38;13.40;70.10
21335;DHT22;69435;52.670;13.544;2023-11-19T12:23:29;13.40;70.10
21335;DHT22;69435;52.670;13.544;2023-11-19T12:26:38;13.40;70.40
21335;DHT22;69435;52.670;13.544;2023-11-19T12:29:25;13.40;70.00
21335;DHT22;69435;52.670;13.544;2023-11-19T12:32:11;13.40;70.30
21335;DHT22;69435;52.670;13.544;2023-11-19T12:34:57;13.40;70.60
21335;DHT22;69435;52.670;13.544;2023-11-19T12:37:45;13.40;70.30
21335;DHT22;69435;52.670;13.544;2023-11-19T12:40:32;13.20;70.60
21335;DHT22;69435;52.670;13.544;2023-11-19T12:43:22;13.20;70.80
21335;DHT22;69435;52.670;13.544;2023-11-19T12:46:21;13.20;71.00
21335;DHT22;69435;52.670;13.544;2023-11-19T12:49:11;13.20;70.90
21335;DHT22;69435;52.670;13.544;2023-11-19T12:51:59;13.20;71.00
21335;DHT22;69435;52.670;13.544;2023-11-19T12:54:46;13.20;70.90
21335;DHT22;69435;52.670;13.544;2023-11-19T12:57:42;13.10;71.10
21335;DHT22;69435;52.670;13.544;2023-11-19T13:00:28;13.20;71.20
21335;DHT22;69435;52.670;13.544;2023-11-19T13:03:29;13.20;71.40
21335;DHT22;69435;52.670;13.544;2023-11-19T13:06:19;13.20;70.80
21335;DHT22;69435;52.670;13.544;2023-11-19T13:09:07;13.20;70.70
21335;DHT22;69435;52.670;13.544;2023-11-19T13:11:56;13.20;70.50
21335;DHT22;69435;52.670;13.544;2023-11-19T13:14:42;13.20;70.20
21335;DHT22;69435;52.670;13.544;2023-11-19T13:17:30;13.10;70.10
21335;DHT22;69435;52.670;13.544;2023-11-19T13:20:16;13.10;70.30
21335;DHT22;69435;52.670;13.544;2023-11-19T13:23:05;13.10;70.30
21335;DHT22;69435;52.670;13.544;2023-11-19T13:25:52;13.10;70.50
21335;DHT22;69435;52.670;13.544;2023-11-19T13:28:38;13.10;70.60
21335;DHT22;69435;52.670;13.544;2023-11-19T13:31:25;13.20;70.70
21335;DHT22;69435;52.670;13.544;2023-11-19T13:34:11;13.20;70.40
21335;DHT22;69435;52.670;13.544;2023-11-19T13:36:57;13.30;70.30
21335;DHT22;69435;52.670;13.544;2023-11-19T13:39:43;13.30;69.90
21335;DHT22;69435;52.670;13.544;2023-11-19T13:42:29;13.30;69.30
21335;DHT22;69435;52.670;13.544;2023-11-19T13:45:16;13.40;69.00
21335;DHT22;69435;52.670;13.544;2023-11-19T13:48:04;13.30;68.90
21335;DHT22;69435;52.670;13.544;2023-11-19T13:50:50;13.30;69.00
21335;DHT22;69435;52.670;13.544;2023-11-19T13:53:36;13.30;68.50
21335;DHT22;69435;52.670;13.544;2023-11-19T13:56:23;13.30;68.40
21335;DHT22;69435;52.670;13.544;2023-11-19T13:59:10;13.30;68.50
21335;DHT22;69435;52.670;13.544;2023-11-19T14:01:56;13.30;68.30
21335;DHT22;69435;52.670;13.544;2023-11-19T14:04:42;13.20;68.20
21335;DHT22;69435;52.670;13.544;2023-11-19T14:07:28;13.20;68.00
21335;DHT22;69435;52.670;13.544;2023-11-19T14:10:15;13.20;68.10
21335;DHT22;69435;52.670;13.544;2023-11-19T14:13:01;13.20;68.10
21335;DHT22;69435;52.670;13.544;2023-11-19T14:15:48;13.30;67.90
21335;DHT22;69435;52.670;13.544;2023-11-19T14:18:35;13.20;67.90
21335;DHT22;69435;52.670;13.544;2023-11-19T14:21:21;13.20;67.80
21335;DHT22;69435;52.670;13.544;2023-11-19T14:24:07;13.20;67.70
21335;DHT22;69435;52.670;13.544;2023-11-19T14:26:53;13.20;67.60
21335;DHT22;69435;52.670;13.544;2023-11-19T14:29:40;13.20;67.70
21335;DHT22;69435;52.670;13.544;2023-11-19T14:32:26;13.20;67.50
21335;DHT22;69435;52.670;13.544;2023-11-19T14:35:12;13.20;67.70
21335;DHT22;69435;52.670;13.544;2023-11-19T14:37:58;13.20;67.70
21335;DHT22;69435;52.670;13.544;2023-11-19T14:40:45;13.20;67.60
21335;DHT22;69435;52.670;13.544;2023-11-19T14:43:31;13.10;67.70
21335;DHT22;69435;52.670;13.544;2023-11-19T14:46:17;13.10;67.70
21335;DHT22;69435;52.670;13.544;2023-11-19T14:49:03;13.10;67.70
21335;DHT22;69435;52.670;13.544;2023-11-19T14:51:50;13.10;67.70
21335;DHT22;69435;52.670;13.544;2023-11-19T14:54:37;13.00;67.70
21335;DHT22;69435;52.670;13.544;2023-11-19T14:57:24;13.10;68.00
21335;DHT22;69435;52.670;13.544;2023-11-19T15:00:10;13.00;67.90
21335;DHT22;69435;52.670;13.544;2023-11-19T15:03:00;13.00;67.80
21335;DHT22;69435;52.670;13.544;2023-11-19T15:05:46;13.00;67.80
21335;DHT22;69435;52.670;13.544;2023-11-19T15:08:33;13.00;67.90
21335;DHT22;69435;52.670;13.544;2023-11-19T15:11:19;13.00;68.00
21335;DHT22;69435;52.670;13.544;2023-11-19T15:14:05;13.00;68.00
21335;DHT22;69435;52.670;13.544;2023-11-19T15:16:52;13.00;68.00
21335;DHT22;69435;52.670;13.544;2023-11-19T15:19:38;13.00;68.00
21335;DHT22;69435;52.670;13.544;2023-11-19T15:22:24;13.00;68.00
21335;DHT22;69435;52.670;13.544;2023-11-19T15:25:10;13.00;68.00
21335;DHT22;69435;52.670;13.544;2023-11-19T15:27:57;12.90;67.90
21335;DHT22;69435;52.670;13.544;2023-11-19T15:30:43;13.00;67.20
21335;DHT22;69435;52.670;13.544;2023-11-19T15:33:29;12.90;68.00
21335;DHT22;69435;52.670;13.544;2023-11-19T15:36:16;13.00;68.10
21335;DHT22;69435;52.670;13.544;2023-11-19T15:39:04;13.00;67.90
21335;DHT22;69435;52.670;13.544;2023-11-19T15:41:50;12.90;68.00
21335;DHT22;69435;52.670;13.544;2023-11-19T15:44:37;12.90;68.00
21335;DHT22;69435;52.670;13.544;2023-11-19T15:47:24;12.90;67.90
21335;DHT22;69435;52.670;13.544;2023-11-19T15:50:10;12.90;67.90
21335;DHT22;69435;52.670;13.544;2023-11-19T15:52:56;12.90;68.00
21335;DHT22;69435;52.670;13.544;2023-11-19T15:55:42;13.00;68.00
21335;DHT22;69435;52.670;13.544;2023-11-19T15:58:29;12.90;67.90
21335;DHT22;69435;52.670;13.544;2023-11-19T16:01:17;12.90;68.00
21335;DHT22;69435;52.670;13.544;2023-11-19T16:04:03;13.00;68.00
21335;DHT22;69435;52.670;13.544;2023-11-19T16:06:50;12.90;67.90
21335;DHT22;69435;52.670;13.544;2023-11-19T16:09:36;13.00;67.90
21335;DHT22;69435;52.670;13.544;2023-11-19T16:12:23;12.90;67.90
21335;DHT22;69435;52.670;13.544;2023-11-19T16:15:10;12.90;67.90
21335;DHT22;69435;52.670;13.544;2023-11-19T16:17:57;12.90;68.00
21335;DHT22;69435;52.670;13.544;2023-11-19T16:20:43;12.90;68.10
21335;DHT22;69435;52.670;13.544;2023-11-19T16:23:30;12.90;67.80
21335;DHT22;69435;52.670;13.544;2023-11-19T16:26:16;12.90;67.80
21335;DHT22;69435;52.670;13.544;2023-11-19T16:29:03;12.80;67.90
21335;DHT22;69435;52.670;13.544;2023-11-19T16:31:49;12.90;68.10
21335;DHT22;69435;52.670;13.544;2023-11-19T16:34:36;12.80;68.00
21335;DHT22;69435;52.670;13.544;2023-11-19T16:37:27;12.80;68.10
21335;DHT22;69435;52.670;13.544;2023-11-19T16:40:14;12.80;68.10
21335;DHT22;69435;52.670;13.544;2023-11-19T16:43:01;12.80;68.20
21335;DHT22;69435;52.670;13.544;2023-11-19T16:45:47;12.70;68.30
21335;DHT22;69435;52.670;13.544;2023-11-19T16:48:34;12.70;68.40
21335;DHT22;69435;52.670;13.544;2023-11-19T16:51:20;12.70;68.40
21335;DHT22;69435;52.670;13.544;2023-11-19T16:54:06;12.70;68.50
21335;DHT22;69435;52.670;13.544;2023-11-19T16:56:52;12.60;68.40
21335;DHT22;69435;52.670;13.544;2023-11-19T16:59:38;12.70;68.50
21335;DHT22;69435;52.670;13.544;2023-11-19T17:02:24;12.70;68.50
21335;DHT22;69435;52.670;13.544;2023-11-19T17:05:11;12.70;68.50
21335;DHT22;69435;52.670;13.544;2023-11-19T17:08:00;12.70;68.50
21335;DHT22;69435;52.670;13.544;2023-11-19T17:10:46;12.80;68.40
21335;DHT22;69435;52.670;13.544;2023-11-19T17:13:35;12.70;68.30
21335;DHT22;69435;52.670;13.544;2023-11-19T17:16:21;12.80;68.20
21335;DHT22;69435;52.670;13.544;2023-11-19T17:19:07;12.80;68.20
21335;DHT22;69435;52.670;13.544;2023-11-19T17:21:53;12.70;68.10
21335;DHT22;69435;52.670;13.544;2023-11-19T17:24:39;12.70;68.20
21335;DHT22;69435;52.670;13.544;2023-11-19T17:27:26;12.70;68.30
21335;DHT22;69435;52.670;13.544;2023-11-19T17:30:15;12.70;68.20
21335;DHT22;69435;52.670;13.544;2023-11-19T17:33:02;12.70;68.20
21335;DHT22;69435;52.670;13.544;2023-11-19T17:35:51;12.70;68.20
21335;DHT22;69435;52.670;13.544;2023-11-19T17:38:37;12.60;68.30